LFJL METAR and TAF | Updated Today

LFJL METAR

Metz-Nancy-Lorraine Airport

Observation time: 21 min. ago

LFJL 061930Z AUTO 01003KT 9999 FEW041 BKN049 02/M02 Q1036 NOSIG

Need help? Read our tutorial on how to read METARs or read the parsed version below.

Metz-Nancy-Lorraine Airport (LFJL) METAR

  • Weather conditions on Mon, 06 Feb 2023 19:30:00 +0000 (21 min. ago):
  • Present conditions: Dry
  • Clouds: A few at 1250 meters; broken sky at 1494 meters
  • Visibility: Greater than 10 km
  • Wind: 10 degrees at 3 knots
  • Temperature: 2 celsius
  • Dew point: -2 celsius
  • Pressure: 1036 millibars
  • Remarks: None


Useful to know...

LFJL TAF

Metz-Nancy-Lorraine Airport

TAF LFJL 061700Z 0618/0718 05006KT 9999 SCT030
Observation time: 2:51 hr. ago
Need help? Read our tutorial on how to read TAFs or read the parsed version below.

Parsed version of TAF for Metz-Nancy-Lorraine Airport (LFJL)

  • From 06 February at 18:00 UTC, to day 07 of the month at 18:00 UTC
  • Clouds: Scattered at 914 meters
  • Visibility: Greater than 10 km
  • Wind: 50 degrees at 6